Time;durP1;ratioP1;P1;durP2;ratioP2;P2;SDS_P1;SDS_P2;PMS_P1;PMS_P2;Temp;Humidity;BMP_temperature;BMP_pressure;BME280_temperature;BME280_humidity;BME280_pressure;Samples;Min_cycle;Max_cycle;Signal;HPM_P1;HPM_P2
2022/09/11 00:02:47;;;;;;;0.00;0.00;;;15.30;99.90;;;;;;10393895;28;20072;-63
2022/09/11 00:07:49;;;;;;;0.00;0.00;;;15.40;99.90;;;;;;10391283;28;20040;-65
2022/09/11 00:12:51;;;;;;;0.00;0.00;;;15.40;99.90;;;;;;10388163;28;20643;-62
2022/09/11 00:17:55;;;;;;;0.00;0.00;;;15.40;99.90;;;;;;10391171;28;20379;-63
2022/09/11 00:22:57;;;;;;;0.00;0.00;;;15.40;99.90;;;;;;10393509;28;20140;-64
2022/09/11 00:27:59;;;;;;;0.00;0.00;;;15.30;99.90;;;;;;10397223;28;20072;-62
2022/09/11 00:33:01;;;;;;;0.00;0.00;;;15.20;99.90;;;;;;10385240;28;20128;-62
2022/09/11 00:38:02;;;;;;;0.00;0.00;;;15.20;99.90;;;;;;10383662;28;20129;-66
2022/09/11 00:43:09;;;;;;;0.00;0.00;;;15.20;99.90;;;;;;10397320;28;20422;-64
2022/09/11 00:48:14;;;;;;;0.00;0.00;;;15.20;99.90;;;;;;10387375;28;20565;-66
2022/09/11 00:53:20;;;;;;;0.00;0.00;;;15.20;99.90;;;;;;10391244;28;20543;-66
2022/09/11 00:58:26;;;;;;;0.00;0.00;;;15.20;99.90;;;;;;10386833;28;20132;-65
2022/09/11 01:03:30;;;;;;;0.00;0.00;;;15.30;99.90;;;;;;10398301;28;20046;-65
2022/09/11 01:08:32;;;;;;;0.00;0.00;;;15.30;99.90;;;;;;10395083;28;20450;-65
2022/09/11 01:14:09;;;;;;;0.00;0.00;;;15.40;99.90;;;;;;10398895;28;20047;-65
2022/09/11 01:19:29;;;;;;;0.00;0.00;;;15.40;99.90;;;;;;10405397;28;20379;-65
2022/09/11 01:24:55;;;;;;;0.00;0.00;;;15.40;99.90;;;;;;10403751;28;20060;-65
2022/09/11 01:30:21;;;;;;;0.00;0.00;;;15.40;99.90;;;;;;10379026;28;20049;-65
2022/09/11 01:35:35;;;;;;;0.00;0.00;;;15.50;99.90;;;;;;10388225;28;20533;-65
2022/09/11 01:40:52;;;;;;;0.00;0.00;;;15.40;99.90;;;;;;10389639;28;20041;-65
2022/09/11 01:45:57;;;;;;;0.00;0.00;;;15.40;99.90;;;;;;10399658;28;20045;-64
2022/09/11 01:51:01;;;;;;;0.00;0.00;;;15.40;99.90;;;;;;10397816;28;20041;-64
2022/09/11 01:56:12;;;;;;;0.00;0.00;;;15.30;99.90;;;;;;10388028;28;20116;-65
2022/09/11 02:01:24;;;;;;;0.00;0.00;;;15.40;99.90;;;;;;10401248;28;20475;-64
2022/09/11 02:06:32;;;;;;;0.00;0.00;;;15.30;99.90;;;;;;10407088;28;20041;-64
2022/09/11 02:11:39;;;;;;;0.00;0.00;;;15.30;99.90;;;;;;10394963;28;20060;-64
2022/09/11 02:16:45;;;;;;;0.00;0.00;;;15.20;99.90;;;;;;10391509;28;20342;-65
2022/09/11 02:21:49;;;;;;;0.00;0.00;;;15.20;99.90;;;;;;10377267;28;20151;-64
2022/09/11 02:26:57;;;;;;;0.00;0.00;;;15.20;99.90;;;;;;10394605;28;20084;-64
2022/09/11 02:32:00;;;;;;;0.00;0.00;;;15.20;99.90;;;;;;10399468;28;20127;-64
2022/09/11 02:37:48;;;;;;;0.00;0.00;;;15.10;99.90;;;;;;10407059;28;22706;-65
2022/09/11 02:43:15;;;;;;;0.00;0.00;;;15.20;99.90;;;;;;10389003;28;20129;-64
2022/09/11 02:48:47;;;;;;;0.00;0.00;;;15.20;99.90;;;;;;10395004;28;20079;-62
2022/09/11 02:54:14;;;;;;;0.00;0.00;;;15.20;99.90;;;;;;10397930;28;20280;-64
2022/09/11 02:59:23;;;;;;;0.00;0.00;;;15.10;99.90;;;;;;10391838;28;20062;-64
2022/09/11 03:04:24;;;;;;;0.00;0.00;;;15.20;99.90;;;;;;10398239;28;20500;-64
2022/09/11 03:09:27;;;;;;;0.00;0.00;;;15.10;99.90;;;;;;10400410;28;20140;-65
2022/09/11 03:14:29;;;;;;;0.00;0.00;;;15.20;99.90;;;;;;10395005;28;20476;-64
2022/09/11 03:19:31;;;;;;;0.00;0.00;;;15.20;99.90;;;;;;10396305;28;20041;-65
2022/09/11 03:24:33;;;;;;;0.00;0.00;;;15.20;99.90;;;;;;10401905;28;20099;-64
2022/09/11 03:29:34;;;;;;;0.00;0.00;;;15.20;99.90;;;;;;10395547;28;20042;-65
2022/09/11 03:34:36;;;;;;;0.00;0.00;;;15.20;99.90;;;;;;10396579;28;20398;-64
2022/09/11 03:39:38;;;;;;;0.00;0.00;;;15.20;99.90;;;;;;10395087;28;20073;-63
2022/09/11 03:44:40;;;;;;;0.00;0.00;;;15.20;99.90;;;;;;10399686;28;20041;-63
2022/09/11 03:49:41;;;;;;;0.00;0.00;;;15.20;99.90;;;;;;10399496;28;20140;-64
2022/09/11 03:54:43;;;;;;;0.00;0.00;;;15.20;99.90;;;;;;10387042;28;20136;-64
2022/09/11 03:59:45;;;;;;;0.00;0.00;;;15.20;99.90;;;;;;10393882;28;20538;-62
2022/09/11 04:04:46;;;;;;;0.00;0.00;;;15.20;99.90;;;;;;10401588;28;20065;-62
2022/09/11 04:09:48;;;;;;;0.00;0.00;;;15.20;99.90;;;;;;10399121;28;20522;-64
2022/09/11 04:14:50;;;;;;;0.00;0.00;;;15.20;99.90;;;;;;10393513;28;20123;-64
2022/09/11 04:19:52;;;;;;;0.00;0.00;;;15.20;99.90;;;;;;10399174;28;20124;-63
2022/09/11 04:24:54;;;;;;;0.00;0.00;;;15.10;99.90;;;;;;10405216;28;20132;-64
2022/09/11 04:29:55;;;;;;;0.00;0.00;;;15.10;99.90;;;;;;10386186;28;20136;-63
2022/09/11 04:34:57;;;;;;;0.00;0.00;;;15.10;99.90;;;;;;10392878;28;20049;-63
2022/09/11 04:39:59;;;;;;;0.00;0.00;;;15.10;99.90;;;;;;10397345;28;20053;-63
2022/09/11 04:45:00;;;;;;;0.00;0.00;;;15.00;99.90;;;;;;10378952;28;20428;-63
2022/09/11 04:50:02;;;;;;;0.00;0.00;;;15.00;99.90;;;;;;10397370;28;20449;-63
2022/09/11 04:55:04;;;;;;;0.00;0.00;;;14.90;99.90;;;;;;10399718;28;20041;-61
2022/09/11 05:00:07;;;;;;;0.00;0.00;;;14.90;99.90;;;;;;10396302;28;20102;-62
2022/09/11 05:05:09;;;;;;;0.00;0.00;;;14.80;99.90;;;;;;10389413;28;20081;-61
2022/09/11 05:10:11;;;;;;;0.00;0.00;;;14.80;99.90;;;;;;10393539;28;20042;-61
2022/09/11 05:15:12;;;;;;;0.00;0.00;;;14.70;99.90;;;;;;10387478;28;20056;-61
2022/09/11 05:20:15;;;;;;;0.00;0.00;;;14.70;99.90;;;;;;10393603;28;20041;-60
2022/09/11 05:25:17;;;;;;;0.00;0.00;;;14.70;99.90;;;;;;10394907;28;20120;-60
2022/09/11 05:30:19;;;;;;;0.00;0.00;;;14.70;99.90;;;;;;10394826;28;20119;-59
2022/09/11 05:35:23;;;;;;;0.00;0.00;;;14.60;99.90;;;;;;10377515;28;20065;-61
2022/09/11 05:40:28;;;;;;;0.00;0.00;;;14.60;99.90;;;;;;10399959;28;20067;-60
2022/09/11 05:45:31;;;;;;;0.00;0.00;;;14.60;99.90;;;;;;10406533;28;20068;-62
2022/09/11 05:50:33;;;;;;;0.00;0.00;;;14.60;99.90;;;;;;10400969;28;20059;-61
2022/09/11 05:55:34;;;;;;;0.00;0.00;;;14.60;99.90;;;;;;10404693;28;20129;-61
2022/09/11 06:00:36;;;;;;;0.00;0.00;;;14.60;99.90;;;;;;10395321;28;20507;-61
2022/09/11 06:05:38;;;;;;;0.00;0.00;;;14.60;99.90;;;;;;10390661;28;20072;-61
2022/09/11 06:10:47;;;;;;;0.00;0.00;;;14.50;99.90;;;;;;10395638;28;20065;-61
2022/09/11 06:15:49;;;;;;;0.00;0.00;;;14.60;99.90;;;;;;10401354;28;20077;-60
2022/09/11 06:20:58;;;;;;;0.00;0.00;;;14.60;99.90;;;;;;10391072;28;20475;-60
2022/09/11 06:26:04;;;;;;;0.00;0.00;;;14.70;99.90;;;;;;10395721;28;20132;-60
2022/09/11 06:31:10;;;;;;;0.00;0.00;;;14.70;99.90;;;;;;10389744;28;20062;-61
2022/09/11 06:36:17;;;;;;;0.00;0.00;;;14.80;99.90;;;;;;10395450;28;20144;-60
2022/09/11 06:41:19;;;;;;;;;;;14.90;99.90;;;;;;10390994;28;20456;-60
2022/09/11 06:46:23;;;;;;;0.00;0.00;;;15.00;99.90;;;;;;10395413;28;19929;-60
2022/09/11 06:51:26;;;;;;;0.00;0.00;;;15.10;99.90;;;;;;10393984;28;20133;-61
2022/09/11 06:56:31;;;;;;;0.00;0.00;;;15.30;99.90;;;;;;10397255;28;20068;-61
2022/09/11 07:01:32;;;;;;;0.00;0.00;;;15.40;99.90;;;;;;10391757;28;20124;-60
2022/09/11 07:06:37;;;;;;;0.00;0.00;;;15.60;99.90;;;;;;10392691;28;20037;-60
2022/09/11 07:11:42;;;;;;;0.00;0.00;;;15.80;99.90;;;;;;10386124;28;20049;-60
2022/09/11 07:16:45;;;;;;;0.00;0.00;;;15.90;99.90;;;;;;10401660;28;20132;-61
2022/09/11 07:21:46;;;;;;;0.00;0.00;;;16.10;99.90;;;;;;10386748;28;20064;-62
2022/09/11 07:26:48;;;;;;;0.00;0.00;;;16.20;99.90;;;;;;10399218;28;20769;-61
2022/09/11 07:31:50;;;;;;;0.00;0.00;;;16.40;99.90;;;;;;10400797;28;20053;-61
2022/09/11 07:36:51;;;;;;;0.00;0.00;;;16.60;99.90;;;;;;10390805;28;20041;-60
2022/09/11 07:41:53;;;;;;;0.00;0.00;;;16.70;99.90;;;;;;10392264;28;20049;-60
2022/09/11 07:46:55;;;;;;;0.00;0.00;;;16.70;99.90;;;;;;10381689;28;20045;-61
2022/09/11 07:52:02;;;;;;;0.00;0.00;;;16.90;99.90;;;;;;10343686;28;20132;-62
2022/09/11 07:57:04;;;;;;;0.00;0.00;;;17.00;99.90;;;;;;10394062;28;20059;-62
2022/09/11 08:02:06;;;;;;;0.00;0.00;;;17.30;99.90;;;;;;10378773;28;20052;-61
2022/09/11 08:07:09;;;;;;;0.00;0.00;;;17.60;99.90;;;;;;10394564;28;20498;-60
2022/09/11 08:12:12;;;;;;;0.00;0.00;;;17.90;99.90;;;;;;10388600;28;20116;-61
2022/09/11 08:17:15;;;;;;;0.00;0.00;;;18.10;99.90;;;;;;10409116;28;20045;-61
2022/09/11 08:22:16;;;;;;;15.57;6.50;;;18.10;99.90;;;;;;10395510;28;20071;-61
2022/09/11 08:27:18;;;;;;;14.07;5.88;;;18.10;99.90;;;;;;10390445;28;20396;-66
2022/09/11 08:32:20;;;;;;;19.15;8.73;;;18.10;99.90;;;;;;10394126;28;20124;-65
2022/09/11 08:37:21;;;;;;;20.13;9.15;;;17.90;99.90;;;;;;10397384;28;20137;-67
2022/09/11 08:42:26;;;;;;;25.95;9.45;;;17.90;99.90;;;;;;10388977;28;20145;-66
2022/09/11 08:47:33;;;;;;;16.85;8.63;;;18.10;99.90;;;;;;10385802;28;20176;-66
2022/09/11 08:52:36;;;;;;;18.73;8.70;;;18.30;99.90;;;;;;10405602;28;20038;-66
2022/09/11 08:58:03;;;;;;;21.83;9.50;;;18.60;99.90;;;;;;10395797;28;20553;-66
2022/09/11 09:03:24;;;;;;;15.73;7.88;;;19.00;99.90;;;;;;10401169;28;20187;-64
2022/09/11 09:08:50;;;;;;;21.17;8.38;;;19.40;99.90;;;;;;10394126;28;20742;-64
2022/09/11 09:14:17;;;;;;;14.43;7.20;;;19.50;99.90;;;;;;10387909;28;20045;-63
2022/09/11 09:19:48;;;;;;;14.45;7.32;;;19.40;99.90;;;;;;10400569;28;20067;-66
2022/09/11 09:25:00;;;;;;;14.20;6.68;;;19.40;99.90;;;;;;10405269;28;20678;-65
2022/09/11 09:30:05;;;;;;;19.65;7.72;;;19.30;99.90;;;;;;10394914;28;20039;-65
2022/09/11 09:35:38;;;;;;;15.30;7.85;;;19.30;99.90;;;;;;10402043;28;20060;-65
2022/09/11 09:41:12;;;;;;;19.08;8.10;;;19.30;99.90;;;;;;10390070;28;20132;-65
2022/09/11 09:46:40;;;;;;;18.13;7.95;;;19.40;99.90;;;;;;10384675;28;20144;-65
2022/09/11 09:51:42;;;;;;;13.25;7.30;;;19.50;99.90;;;;;;10391982;28;20037;-63
2022/09/11 09:56:55;;;;;;;14.57;6.20;;;19.70;99.90;;;;;;10402917;28;20409;-65
2022/09/11 10:01:57;;;;;;;16.92;7.22;;;19.70;99.90;;;;;;10405401;28;20055;-65
2022/09/11 10:07:10;;;;;;;17.63;5.93;;;19.70;99.90;;;;;;10383514;28;20056;-63
2022/09/11 10:12:18;;;;;;;18.45;6.90;;;19.70;99.90;;;;;;10397961;28;20522;-62
2022/09/11 10:17:28;;;;;;;16.90;7.00;;;19.80;99.90;;;;;;10402738;28;20045;-63
2022/09/11 10:22:31;;;;;;;12.98;6.70;;;20.00;99.90;;;;;;10381815;28;20128;-66
2022/09/11 10:27:38;;;;;;;14.90;7.38;;;20.40;99.90;;;;;;10402693;28;20068;-61
2022/09/11 10:32:41;;;;;;;9.60;4.20;;;20.80;99.90;;;;;;10394191;28;20042;-61
2022/09/11 10:37:43;;;;;;;9.35;4.45;;;21.10;99.90;;;;;;10400065;28;20136;-60
2022/09/11 10:42:45;;;;;;;11.10;4.22;;;21.00;99.90;;;;;;10403309;28;20136;-60
2022/09/11 10:47:49;;;;;;;11.38;4.60;;;21.20;99.90;;;;;;10403397;28;20204;-61
2022/09/11 10:52:57;;;;;;;9.45;4.60;;;21.00;99.90;;;;;;10404633;28;20100;-67
2022/09/11 10:58:11;;;;;;;12.65;5.60;;;20.80;99.90;;;;;;10407187;28;20051;-62
2022/09/11 11:03:21;;;;;;;14.98;6.13;;;20.50;99.90;;;;;;10394247;28;20362;-67
2022/09/11 11:08:56;;;;;;;15.02;7.05;;;19.60;99.90;;;;;;10398924;28;20045;-70
2022/09/11 11:14:24;;;;;;;16.15;7.18;;;19.10;99.90;;;;;;10402428;28;20149;-67
2022/09/11 11:20:05;;;;;;;19.95;7.68;;;18.70;99.90;;;;;;10395227;28;20045;-66
2022/09/11 11:25:37;;;;;;;20.05;7.88;;;18.70;99.90;;;;;;10396704;28;20391;-67
2022/09/11 11:31:08;;;;;;;16.00;7.07;;;18.80;99.90;;;;;;10396359;28;20072;-66
2022/09/11 11:36:16;;;;;;;17.35;6.82;;;18.90;99.90;;;;;;10397453;28;20057;-66
2022/09/11 11:41:25;;;;;;;14.05;5.75;;;19.10;99.90;;;;;;10388642;28;20136;-67
2022/09/11 11:46:38;;;;;;;12.77;5.55;;;19.60;99.90;;;;;;10392180;28;20116;-67
2022/09/11 11:51:59;;;;;;;14.15;5.68;;;20.20;99.90;;;;;;10386035;28;20116;-66
2022/09/11 11:57:16;;;;;;;11.00;5.15;;;20.40;99.90;;;;;;10398012;28;20143;-65
2022/09/11 12:02:28;;;;;;;14.55;7.03;;;20.50;99.90;;;;;;10403656;28;20104;-59
2022/09/11 12:07:33;;;;;;;9.05;4.80;;;20.50;99.90;;;;;;10384823;28;20766;-58
2022/09/11 12:13:01;;;;;;;11.13;5.32;;;20.40;99.90;;;;;;10396860;28;20121;-59
2022/09/11 12:18:23;;;;;;;11.20;4.35;;;20.50;99.90;;;;;;10388207;28;20051;-59
2022/09/11 12:23:57;;;;;;;8.13;4.00;;;20.60;99.90;;;;;;10387030;28;20083;-60
2022/09/11 12:29:11;;;;;;;10.70;4.72;;;20.70;99.90;;;;;;10407422;28;20526;-59
2022/09/11 12:34:16;;;;;;;11.77;4.95;;;20.80;99.90;;;;;;10391238;28;20049;-60
2022/09/11 12:39:23;;;;;;;7.68;4.22;;;20.90;99.90;;;;;;10390215;28;20092;-59
2022/09/11 12:44:51;;;;;;;12.38;4.88;;;21.00;99.90;;;;;;10383247;28;20041;-58
2022/09/11 12:50:05;;;;;;;8.52;3.90;;;21.10;99.90;;;;;;10400199;28;20357;-61
2022/09/11 12:55:38;;;;;;;7.75;3.75;;;21.50;99.90;;;;;;10393543;28;20045;-60
2022/09/11 13:00:44;;;;;;;9.63;3.85;;;21.60;99.90;;;;;;10383131;28;20054;-60
2022/09/11 13:06:03;;;;;;;5.40;3.20;;;21.40;99.90;;;;;;10395069;28;20387;-60
2022/09/11 13:11:32;;;;;;;8.82;3.45;;;21.90;99.90;;;;;;10390881;28;20729;-61
2022/09/11 13:16:34;;;;;;;7.80;2.92;;;22.30;99.90;;;;;;10389359;28;20055;-61
2022/09/11 13:21:39;;;;;;;5.28;2.78;;;22.70;99.90;;;;;;10393701;28;20044;-60
2022/09/11 13:26:41;;;;;;;5.97;2.80;;;23.20;99.90;;;;;;10393058;28;20056;-60
2022/09/11 13:31:43;;;;;;;6.00;2.92;;;23.20;99.90;;;;;;10406496;28;20606;-60
2022/09/11 13:36:47;;;;;;;5.28;2.85;;;23.30;99.90;;;;;;10401405;28;20047;-59
2022/09/11 13:41:58;;;;;;;5.72;2.42;;;23.40;99.90;;;;;;10388631;28;20080;-60
2022/09/11 13:47:00;;;;;;;7.05;2.75;;;23.30;99.90;;;;;;10396797;28;20150;-59
2022/09/11 13:52:05;;;;;;;6.28;2.55;;;23.20;99.90;;;;;;10398361;28;20495;-60
2022/09/11 13:57:13;;;;;;;5.93;2.23;;;23.10;99.90;;;;;;10410545;28;20095;-61
2022/09/11 14:02:17;;;;;;;5.07;2.70;;;22.90;99.90;;;;;;10396337;28;20555;-61
2022/09/11 14:07:24;;;;;;;6.93;2.78;;;22.80;99.90;;;;;;10399765;28;20041;-61
2022/09/11 14:12:27;;;;;;;6.85;3.25;;;22.70;99.90;;;;;;10385090;28;20124;-61
2022/09/11 14:17:28;;;;;;;5.40;2.20;;;22.60;99.90;;;;;;10400658;28;20181;-61
2022/09/11 14:22:31;;;;;;;7.22;2.90;;;22.60;99.90;;;;;;10394509;28;20046;-61
2022/09/11 14:27:36;;;;;;;7.40;2.85;;;22.60;99.90;;;;;;10398439;28;20105;-61
2022/09/11 14:32:38;;;;;;;7.82;3.00;;;22.70;99.90;;;;;;10400791;28;20384;-60
2022/09/11 14:37:44;;;;;;;7.18;2.40;;;22.70;99.90;;;;;;10398567;28;20097;-60
2022/09/11 14:42:46;;;;;;;4.40;2.25;;;22.60;99.90;;;;;;10392682;28;20439;-61
2022/09/11 14:47:49;;;;;;;4.97;1.95;;;22.60;99.90;;;;;;10394604;28;20052;-61
2022/09/11 14:52:50;;;;;;;5.18;2.20;;;22.40;99.90;;;;;;10401966;28;20128;-61
2022/09/11 14:57:52;;;;;;;4.45;2.15;;;22.30;99.90;;;;;;10398734;28;20042;-61
2022/09/11 15:02:54;;;;;;;5.18;1.88;;;22.10;99.90;;;;;;10396644;28;20055;-60
2022/09/11 15:07:55;;;;;;;6.85;2.45;;;22.00;99.90;;;;;;10391783;28;20053;-61
2022/09/11 15:12:57;;;;;;;9.13;2.55;;;22.00;99.90;;;;;;10384978;28;20132;-61
2022/09/11 15:17:59;;;;;;;3.88;1.73;;;21.90;99.90;;;;;;10395467;28;20049;-62
2022/09/11 15:23:01;;;;;;;5.10;1.92;;;21.80;99.90;;;;;;10397293;28;20144;-61
2022/09/11 15:28:05;;;;;;;6.97;2.10;;;21.80;99.90;;;;;;10391370;28;20141;-59
2022/09/11 15:33:07;;;;;;;5.97;2.60;;;21.70;99.90;;;;;;10388665;28;20150;-60
2022/09/11 15:38:09;;;;;;;6.35;2.53;;;21.70;99.90;;;;;;10402416;28;20140;-60
2022/09/11 15:43:10;;;;;;;5.90;2.78;;;21.70;99.90;;;;;;10390785;28;20552;-61
2022/09/11 15:48:13;;;;;;;6.97;2.20;;;21.80;99.90;;;;;;10402056;28;20063;-61
2022/09/11 15:53:15;;;;;;;7.30;2.85;;;21.90;99.90;;;;;;10400745;28;20146;-61
2022/09/11 15:58:17;;;;;;;7.05;2.30;;;21.70;99.90;;;;;;10391797;28;20054;-61
2022/09/11 16:03:20;;;;;;;9.02;3.10;;;21.70;99.90;;;;;;10398279;28;20060;-60
2022/09/11 16:08:23;;;;;;;7.30;3.20;;;21.70;99.90;;;;;;10379847;28;20053;-60
2022/09/11 16:13:24;;;;;;;6.63;2.88;;;21.60;99.90;;;;;;10438253;23;20060;-90
2022/09/11 16:18:28;;;;;;;8.65;2.90;;;21.60;99.90;;;;;;10400708;28;20045;-91
2022/09/11 16:23:32;;;;;;;7.38;2.83;;;21.60;99.90;;;;;;10403482;28;20046;-91
2022/09/11 16:28:36;;;;;;;7.47;3.35;;;21.50;99.90;;;;;;10400395;28;21775;-90
2022/09/11 16:33:42;;;;;;;7.32;3.53;;;21.40;99.90;;;;;;10403587;28;20041;-90
2022/09/11 16:38:45;;;;;;;8.63;3.22;;;21.30;99.90;;;;;;10404253;28;20495;-90
2022/09/11 16:43:51;;;;;;;8.02;3.35;;;21.30;99.90;;;;;;10415006;28;20041;-91
2022/09/11 16:48:55;;;;;;;7.32;3.60;;;21.20;99.90;;;;;;10383354;28;20092;-90
2022/09/11 16:54:03;;;;;;;5.70;2.95;;;21.10;99.90;;;;;;10369986;28;20060;-91
2022/09/11 16:59:05;;;;;;;8.27;3.70;;;21.00;99.90;;;;;;10369553;28;20045;-89
2022/09/11 17:04:07;;;;;;;6.88;3.15;;;20.90;99.90;;;;;;10375452;28;20076;-90
2022/09/11 17:09:09;;;;;;;10.55;3.05;;;20.80;99.90;;;;;;10387009;28;20057;-90
2022/09/11 17:14:11;;;;;;;10.00;3.92;;;20.70;99.90;;;;;;10380489;28;20058;-90
2022/09/11 17:19:13;;;;;;;6.68;3.35;;;20.50;99.90;;;;;;10365034;23;20049;-66
2022/09/11 17:24:19;;;;;;;8.75;4.30;;;20.40;99.90;;;;;;10380319;28;20140;-66
2022/09/11 17:29:20;;;;;;;9.05;4.28;;;20.30;99.90;;;;;;10391255;28;20048;-66
2022/09/11 17:34:22;;;;;;;5.80;3.10;;;20.20;99.90;;;;;;10392618;28;20132;-67
2022/09/11 17:39:23;;;;;;;6.75;3.58;;;20.00;99.90;;;;;;10391895;28;20133;-68
2022/09/11 17:44:25;;;;;;;8.10;2.70;;;19.90;99.90;;;;;;10393683;28;20144;-66
2022/09/11 17:49:29;;;;;;;9.35;3.47;;;19.70;99.90;;;;;;10394352;28;20041;-67
2022/09/11 17:54:31;;;;;;;6.82;2.92;;;19.60;99.90;;;;;;10392367;28;20456;-66
2022/09/11 17:59:33;;;;;;;12.77;3.92;;;19.60;99.90;;;;;;10391648;28;20049;-68
2022/09/11 18:04:34;;;;;;;8.90;3.33;;;19.50;99.90;;;;;;10392545;28;20045;-66
2022/09/11 18:09:36;;;;;;;18.35;4.78;;;19.40;99.90;;;;;;10391071;28;20508;-61
2022/09/11 18:14:39;;;;;;;9.20;3.35;;;19.30;99.90;;;;;;10386497;28;20491;-62
2022/09/11 18:19:41;;;;;;;9.55;3.33;;;19.20;99.90;;;;;;10371302;28;20132;-63
2022/09/11 18:24:43;;;;;;;6.63;3.58;;;19.00;99.90;;;;;;10368650;28;20046;-62
2022/09/11 18:29:45;;;;;;;9.80;3.33;;;18.90;99.90;;;;;;10375358;28;20495;-63
2022/09/11 18:34:47;;;;;;;8.00;3.67;;;18.80;99.90;;;;;;10376489;28;20080;-64
2022/09/11 18:39:49;;;;;;;13.13;3.80;;;18.60;99.90;;;;;;10373774;28;20451;-62
2022/09/11 18:44:50;;;;;;;13.00;5.30;;;18.50;99.90;;;;;;10373545;28;20057;-62
2022/09/11 18:49:52;;;;;;;11.13;4.40;;;18.30;99.90;;;;;;10370013;28;20462;-61
2022/09/11 18:54:54;;;;;;;12.77;3.90;;;18.20;99.90;;;;;;10369092;28;20045;-60
2022/09/11 18:59:55;;;;;;;9.27;3.63;;;18.00;99.90;;;;;;10367749;28;20133;-61
2022/09/11 19:04:57;;;;;;;11.88;3.65;;;17.90;99.90;;;;;;10370952;28;20073;-61
2022/09/11 19:10:00;;;;;;;15.40;3.92;;;17.80;99.90;;;;;;10371653;28;20136;-62
2022/09/11 19:15:02;;;;;;;7.00;3.38;;;17.70;99.90;;;;;;10376164;28;20118;-61
2022/09/11 19:20:08;;;;;;;11.10;4.00;;;17.70;99.90;;;;;;10372356;28;20140;-61
2022/09/11 19:25:10;;;;;;;14.38;3.38;;;17.60;99.90;;;;;;10374319;28;20574;-61
2022/09/11 19:30:12;;;;;;;9.85;3.42;;;17.60;99.90;;;;;;10376092;28;20042;-61
2022/09/11 19:35:14;;;;;;;10.27;3.78;;;17.50;99.90;;;;;;10373077;28;20320;-61
2022/09/11 19:40:15;;;;;;;8.82;3.63;;;17.50;99.90;;;;;;10368457;28;20062;-61
2022/09/11 19:45:17;;;;;;;8.40;3.30;;;17.40;99.90;;;;;;10367696;28;20081;-62
2022/09/11 19:50:21;;;;;;;6.85;3.35;;;17.30;99.90;;;;;;10370185;28;20041;-61
2022/09/11 19:55:24;;;;;;;7.65;3.88;;;17.20;99.90;;;;;;10374626;28;20522;-61
2022/09/11 20:00:26;;;;;;;12.02;3.50;;;17.10;99.90;;;;;;10371797;28;20125;-62
2022/09/11 20:05:28;;;;;;;12.40;4.45;;;17.00;99.90;;;;;;10370697;28;20080;-59
2022/09/11 20:10:30;;;;;;;10.02;3.85;;;16.90;99.90;;;;;;10368099;28;20111;-61
2022/09/11 20:15:34;;;;;;;9.10;3.90;;;16.80;99.90;;;;;;10372106;28;20124;-61
2022/09/11 20:20:37;;;;;;;11.45;3.50;;;16.70;99.90;;;;;;10367637;28;20052;-60
2022/09/11 20:25:45;;;;;;;10.48;3.45;;;16.50;99.90;;;;;;10361239;28;20037;-60
2022/09/11 20:30:47;;;;;;;8.65;3.80;;;16.40;99.90;;;;;;10372857;28;20065;-60
2022/09/11 20:35:48;;;;;;;9.57;3.97;;;16.30;99.90;;;;;;10367661;28;20101;-60
2022/09/11 20:40:50;;;;;;;10.77;3.85;;;16.30;99.90;;;;;;10306858;28;20070;-61
2022/09/11 20:45:53;;;;;;;9.57;3.65;;;16.30;99.90;;;;;;10361164;28;20141;-61
2022/09/11 20:51:04;;;;;;;13.00;4.25;;;16.20;99.90;;;;;;10367820;28;20124;-62
2022/09/11 20:56:10;;;;;;;9.15;3.85;;;16.20;99.90;;;;;;10366396;28;20084;-61
2022/09/11 21:01:15;;;;;;;9.27;3.33;;;16.10;99.90;;;;;;10369686;28;20096;-61
2022/09/11 21:06:18;;;;;;;9.90;3.42;;;16.10;99.90;;;;;;10371057;28;20124;-61
2022/09/11 21:11:27;;;;;;;8.95;3.70;;;16.10;99.90;;;;;;10371224;28;20050;-62
2022/09/11 21:16:29;;;;;;;9.65;4.95;;;15.80;99.90;;;;;;10375973;28;20500;-60
2022/09/11 21:21:32;;;;;;;9.23;3.88;;;15.80;99.90;;;;;;10373571;28;20046;-62
2022/09/11 21:26:36;;;;;;;8.90;3.47;;;15.70;99.90;;;;;;10381341;28;20637;-61
2022/09/11 21:31:38;;;;;;;6.88;3.00;;;15.60;99.90;;;;;;10378306;28;20136;-61
2022/09/11 21:36:39;;;;;;;12.23;4.32;;;15.50;99.90;;;;;;10381653;28;20057;-62
2022/09/11 21:41:41;;;;;;;11.27;3.88;;;15.50;99.90;;;;;;10375346;28;20049;-61
2022/09/11 21:46:43;;;;;;;13.18;3.22;;;15.40;99.90;;;;;;10373857;28;20080;-61
2022/09/11 21:51:44;;;;;;;14.80;3.47;;;15.30;99.90;;;;;;10374116;28;20053;-61
2022/09/11 21:56:46;;;;;;;7.97;3.75;;;15.20;99.90;;;;;;10372380;28;20057;-60
2022/09/11 22:01:48;;;;;;;8.15;3.53;;;15.20;99.90;;;;;;10375444;28;20215;-62
2022/09/11 22:06:50;;;;;;;8.35;3.42;;;15.10;99.90;;;;;;10375161;28;20065;-61
2022/09/11 22:11:52;;;;;;;7.78;3.92;;;15.00;99.90;;;;;;10374902;28;20053;-62
2022/09/11 22:16:59;;;;;;;8.00;3.70;;;14.90;99.90;;;;;;10377373;28;20050;-61
2022/09/11 22:22:01;;;;;;;10.10;3.90;;;14.90;99.90;;;;;;10379578;28;20128;-61
2022/09/11 22:27:03;;;;;;;8.50;3.40;;;14.80;99.90;;;;;;10375854;28;20049;-61
2022/09/11 22:32:05;;;;;;;8.77;3.72;;;14.70;99.90;;;;;;10369769;28;20522;-62
2022/09/11 22:37:07;;;;;;;12.43;3.72;;;14.70;99.90;;;;;;10368914;28;20145;-61
2022/09/11 22:42:09;;;;;;;9.07;3.33;;;14.60;99.90;;;;;;10374464;28;20069;-63
2022/09/11 22:47:10;;;;;;;11.30;3.90;;;14.60;99.90;;;;;;10373253;28;20103;-63
2022/09/11 22:52:12;;;;;;;7.72;3.67;;;14.50;99.90;;;;;;10370637;28;20819;-60
2022/09/11 22:57:14;;;;;;;6.30;3.13;;;14.50;99.90;;;;;;10376682;28;20121;-61
2022/09/11 23:02:16;;;;;;;10.60;4.20;;;14.40;99.90;;;;;;10370802;28;20052;-61
2022/09/11 23:07:17;;;;;;;10.27;3.55;;;14.30;99.90;;;;;;10349307;28;20084;-61
2022/09/11 23:12:19;;;;;;;7.47;3.25;;;14.30;99.90;;;;;;10368885;28;20057;-62
2022/09/11 23:17:21;;;;;;;10.82;3.92;;;14.20;99.90;;;;;;10367200;28;20132;-61
2022/09/11 23:22:24;;;;;;;8.25;3.55;;;14.20;99.90;;;;;;10367333;28;20050;-60
2022/09/11 23:27:26;;;;;;;10.02;3.55;;;14.10;99.90;;;;;;10369166;28;20073;-61
2022/09/11 23:32:28;;;;;;;8.48;3.75;;;14.10;99.90;;;;;;10373504;28;20055;-60
2022/09/11 23:37:29;;;;;;;5.93;2.92;;;14.00;99.90;;;;;;10370109;28;20565;-61
2022/09/11 23:42:55;;;;;;;7.68;3.38;;;13.90;99.90;;;;;;10354977;28;20041;-61
2022/09/11 23:47:57;;;;;;;8.50;4.15;;;13.90;99.90;;;;;;10370759;28;20069;-61
2022/09/11 23:52:58;;;;;;;10.68;3.60;;;13.80;99.90;;;;;;10367757;28;20049;-62
2022/09/11 23:58:01;;;;;;;8.82;3.75;;;13.80;99.90;;;;;;10372568;28;20073;-61
